EPRA

Radom Military Air Base Airport

Poland
METAR EPRA 221800Z 31005KT CAVOK 14/04 Q1015
Observed Flight Rules
Apr-22 @ 18:00 UTC (24 minutes ago) Visual Flight Rules
Wind Visibility Clouds
310° at 5 knots 10,000+ meters
  • Clear skies
Temperatures Readings
Current 14°C / 57°F
Dewpoint 4°C / 39°F
Humidity 51%
Altimeter 29.97" Hg
Pressure 1015 hPa
Elevation 178
METAR EPRA 221800Z 31005KT CAVOK 14/04 Q1015
Observed Flight Rules
Apr-22 @ 18:00 UTC
(24 minutes ago)
VFR
Wind Visibility
310° at 5 knots 10,000+ meters
Clouds
  • Clear skies
Temperature Dewpoint
14°C / 57°F 4°C / 39°F
Humidity Altimeter Pressure
51% 29.97" Hg 1015 hPa